createdAt,value
2022-12-17T00:04:51.334Z,262.80
2022-12-17T00:09:50.648Z,250.20
2022-12-17T00:14:48.807Z,241.70
2022-12-17T00:19:49.007Z,222.10
2022-12-17T00:24:48.199Z,216.90
2022-12-17T00:29:47.433Z,199.20
2022-12-17T00:34:46.620Z,192.80
2022-12-17T00:39:44.797Z,176.90
2022-12-17T00:44:42.985Z,175.70
2022-12-17T00:49:44.180Z,159.20
2022-12-17T00:54:42.418Z,151.70
2022-12-17T00:59:41.717Z,138.20
2022-12-17T01:04:42.017Z,134.20
2022-12-17T01:09:40.296Z,124.90
2022-12-17T01:14:39.654Z,119.00
2022-12-17T01:19:38.744Z,114.30
2022-12-17T01:24:39.086Z,108.70
2022-12-17T01:29:37.229Z,102.40
2022-12-17T01:34:37.536Z,98.90
2022-12-17T01:39:35.844Z,95.10
2022-12-17T01:44:36.001Z,89.70
2022-12-17T01:49:35.323Z,85.80
2022-12-17T01:54:34.638Z,79.30
2022-12-17T01:59:31.947Z,79.10
2022-12-17T02:04:32.267Z,74.40
2022-12-17T02:09:32.638Z,68.20
2022-12-17T02:14:30.757Z,65.70
2022-12-17T02:19:31.040Z,63.20
2022-12-17T02:24:29.291Z,62.00
2022-12-17T02:29:29.579Z,59.40
2022-12-17T02:34:26.896Z,55.70
2022-12-17T02:39:27.201Z,53.30
2022-12-17T02:44:26.507Z,51.40
2022-12-17T02:49:25.790Z,50.40
2022-12-17T02:54:25.098Z,48.60
2022-12-17T02:59:25.364Z,44.50
2022-12-17T03:04:23.635Z,43.50
2022-12-17T03:09:23.936Z,41.30
2022-12-17T03:14:22.224Z,39.00
2022-12-17T03:19:22.523Z,37.70
2022-12-17T03:24:21.859Z,37.10
2022-12-17T03:29:21.958Z,36.10
2022-12-17T03:34:19.245Z,34.50
2022-12-17T03:39:19.575Z,31.10
2022-12-17T03:44:17.881Z,31.60
2022-12-17T03:49:18.199Z,29.50
2022-12-17T03:54:17.500Z,30.50
2022-12-17T03:59:16.802Z,28.30
2022-12-17T04:04:15.130Z,27.80
2022-12-17T04:09:14.405Z,26.30
2022-12-17T04:14:13.740Z,26.00
2022-12-17T04:19:13.010Z,25.10
2022-12-17T04:24:13.314Z,24.00
2022-12-17T04:29:12.567Z,24.30
2022-12-17T04:34:10.853Z,21.90
2022-12-17T04:39:11.162Z,22.50
2022-12-17T04:44:09.466Z,21.20
2022-12-17T04:49:10.761Z,20.60
2022-12-17T04:54:09.064Z,19.80
2022-12-17T04:59:10.507Z,19.60
2022-12-17T05:04:08.602Z,19.30
2022-12-17T05:09:05.925Z,18.40
2022-12-17T05:14:05.066Z,17.20
2022-12-17T05:19:04.413Z,17.00
2022-12-17T05:24:03.583Z,17.50
2022-12-17T05:29:02.710Z,16.20
2022-12-17T05:34:02.855Z,15.60
2022-12-17T05:39:01.153Z,16.40
2022-12-17T05:44:00.464Z,15.00
2022-12-17T05:48:59.806Z,15.60
2022-12-17T05:53:57.952Z,14.70
2022-12-17T05:58:58.064Z,14.40
2022-12-17T06:03:57.408Z,14.10
2022-12-17T06:08:56.748Z,13.50
2022-12-17T06:13:56.839Z,13.50
2022-12-17T06:18:56.163Z,12.40
2022-12-17T06:23:55.478Z,12.90
2022-12-17T06:28:53.810Z,11.20
2022-12-17T06:33:52.950Z,11.70
2022-12-17T06:38:53.303Z,17.70
2022-12-17T06:43:51.440Z,16.40
2022-12-17T06:48:51.744Z,16.80
2022-12-17T06:53:50.050Z,17.80
2022-12-17T06:58:49.442Z,18.60
2022-12-17T07:03:50.565Z,18.40
2022-12-17T07:08:47.918Z,17.00
2022-12-17T07:14:01.804Z,17.20
2022-12-17T07:18:46.258Z,16.60
2022-12-17T07:23:45.607Z,18.10
2022-12-17T07:28:46.941Z,17.90
2022-12-17T07:33:44.196Z,16.80
2022-12-17T07:38:43.508Z,16.30
2022-12-17T07:43:47.016Z,19.30
2022-12-17T07:48:42.967Z,19.20
2022-12-17T07:53:41.268Z,17.60
2022-12-17T07:58:41.607Z,19.60
2022-12-17T08:03:41.515Z,18.10
2022-12-17T08:08:39.071Z,23.00
2022-12-17T08:13:39.578Z,16.20
2022-12-17T08:18:37.585Z,17.70
2022-12-17T08:23:37.282Z,21.50
2022-12-17T08:28:52.380Z,18.90
2022-12-17T08:33:36.559Z,20.50
2022-12-17T08:38:35.451Z,22.20
2022-12-17T08:43:34.841Z,22.10
2022-12-17T08:48:33.782Z,22.30
2022-12-17T08:53:35.052Z,23.30
2022-12-17T08:58:31.407Z,23.70
2022-12-17T09:03:30.748Z,22.70
2022-12-17T09:08:28.866Z,23.00
2022-12-17T09:13:30.168Z,22.20
2022-12-17T09:18:30.489Z,24.60
2022-12-17T09:23:27.798Z,23.40
2022-12-17T09:28:28.074Z,23.50
2022-12-17T09:33:26.362Z,24.30
2022-12-17T09:38:25.670Z,26.70
2022-12-17T09:43:24.975Z,25.80
2022-12-17T09:48:29.491Z,26.00
2022-12-17T09:53:23.496Z,28.50
2022-12-17T09:58:22.618Z,26.50
2022-12-17T10:03:23.026Z,24.80
2022-12-17T10:08:21.220Z,22.40
2022-12-17T10:13:21.554Z,24.20
2022-12-17T10:18:19.921Z,23.70
2022-12-17T10:23:20.056Z,21.50
2022-12-17T10:28:18.385Z,23.70
2022-12-17T10:33:15.738Z,21.60
2022-12-17T10:38:16.863Z,23.10
2022-12-17T10:43:17.155Z,21.90
2022-12-17T10:48:16.449Z,22.60
2022-12-17T10:53:15.686Z,22.00
2022-12-17T10:58:13.907Z,22.10
2022-12-17T11:03:12.332Z,25.10
2022-12-17T11:08:12.390Z,22.70
2022-12-17T11:13:13.626Z,25.20
2022-12-17T11:18:12.771Z,27.10
2022-12-17T11:23:09.948Z,24.00
2022-12-17T11:28:10.141Z,24.50
2022-12-17T11:33:09.303Z,24.30
2022-12-17T11:38:08.517Z,22.10
2022-12-17T11:43:06.714Z,27.80
2022-12-17T11:48:07.886Z,74.60
2022-12-17T11:53:05.043Z,58.40
2022-12-17T11:58:04.237Z,54.00
2022-12-17T12:03:03.554Z,49.80
2022-12-17T12:08:03.645Z,46.50
2022-12-17T12:13:00.810Z,41.00
2022-12-17T12:18:00.996Z,44.10
2022-12-17T12:23:00.185Z,37.00
2022-12-17T12:27:59.515Z,33.50
2022-12-17T12:32:59.713Z,32.50
2022-12-17T12:37:57.895Z,33.70
2022-12-17T12:42:57.069Z,33.30
2022-12-17T12:47:57.248Z,31.20
2022-12-17T12:52:55.408Z,34.20
2022-12-17T12:57:54.576Z,29.70
2022-12-17T13:02:54.864Z,31.50
2022-12-17T13:07:52.906Z,50.00
2022-12-17T13:12:52.088Z,98.80
2022-12-17T13:17:51.307Z,70.80
2022-12-17T13:22:52.542Z,65.00
2022-12-17T13:27:49.732Z,59.50
2022-12-17T13:32:49.942Z,53.30
2022-12-17T13:37:49.139Z,48.80
2022-12-17T13:42:46.362Z,46.80
2022-12-17T13:47:48.564Z,41.50
2022-12-17T13:52:46.784Z,40.60
2022-12-17T13:57:44.979Z,39.10
2022-12-17T14:02:44.320Z,36.10
2022-12-17T14:07:43.339Z,34.50
2022-12-17T14:12:42.541Z,32.00
2022-12-17T14:17:41.780Z,31.40
2022-12-17T14:22:47.667Z,30.20
2022-12-17T14:27:42.235Z,28.20
2022-12-17T14:32:39.413Z,27.70
2022-12-17T14:37:40.572Z,32.00
2022-12-17T14:42:36.743Z,31.30
2022-12-17T14:47:37.930Z,31.10
2022-12-17T14:52:36.106Z,32.00
2022-12-17T14:57:36.256Z,29.90
2022-12-17T15:02:35.567Z,34.90
2022-12-17T15:07:33.751Z,31.20
2022-12-17T15:12:32.901Z,29.80
2022-12-17T15:17:34.088Z,28.10
2022-12-17T15:22:31.235Z,27.90
2022-12-17T15:27:30.400Z,27.10
2022-12-17T15:32:29.566Z,27.00
2022-12-17T15:37:29.753Z,25.70
2022-12-17T15:42:27.931Z,26.30
2022-12-17T15:47:29.098Z,25.50
2022-12-17T15:52:26.254Z,24.10
2022-12-17T15:57:25.416Z,24.30
2022-12-17T16:02:24.733Z,23.80
2022-12-17T16:07:23.798Z,24.50
2022-12-17T16:12:22.968Z,25.00
2022-12-17T16:17:22.151Z,26.10
2022-12-17T16:22:22.317Z,24.60
2022-12-17T16:27:21.490Z,24.80
2022-12-17T16:32:19.672Z,23.70
2022-12-17T16:37:19.832Z,25.50
2022-12-17T16:42:18.013Z,23.10
2022-12-17T16:47:17.284Z,23.40
2022-12-17T16:52:16.539Z,23.20
2022-12-17T16:57:16.747Z,21.60
2022-12-17T17:02:14.126Z,22.60
2022-12-17T17:07:14.165Z,23.10
2022-12-17T17:12:13.340Z,21.20
2022-12-17T17:17:14.548Z,22.00
2022-12-17T17:22:11.716Z,20.70
2022-12-17T17:27:11.905Z,22.00
2022-12-17T17:32:11.328Z,21.30
2022-12-17T17:37:09.275Z,22.00
2022-12-17T17:42:09.497Z,20.60
2022-12-17T17:47:07.824Z,20.00
2022-12-17T17:52:09.974Z,20.70
2022-12-17T17:57:08.216Z,22.10
2022-12-17T18:02:05.436Z,44.90
2022-12-17T18:12:03.988Z,77.30
2022-12-17T18:17:03.169Z,82.70
2022-12-17T18:22:02.511Z,41.40
2022-12-17T18:27:01.722Z,39.60
2022-12-17T18:32:01.807Z,41.00
2022-12-17T18:37:02.239Z,137.00
2022-12-17T18:42:00.270Z,120.90
2022-12-17T18:46:58.502Z,98.20
2022-12-17T18:51:57.713Z,112.20
2022-12-17T18:57:02.059Z,78.90
2022-12-17T19:01:55.304Z,74.00
2022-12-17T19:06:56.625Z,68.40
2022-12-17T19:11:54.625Z,52.70
2022-12-17T19:16:54.186Z,50.20
2022-12-17T19:21:53.387Z,47.70
2022-12-17T19:26:53.433Z,43.80
2022-12-17T19:31:52.697Z,82.30
2022-12-17T19:36:50.958Z,133.80
2022-12-17T19:41:51.102Z,104.90
2022-12-17T19:46:50.489Z,94.90
2022-12-17T19:51:49.511Z,87.20
2022-12-17T19:56:49.692Z,73.90
2022-12-17T20:01:48.318Z,64.70
2022-12-17T20:06:46.179Z,57.80
2022-12-17T20:11:44.468Z,108.70
2022-12-17T20:16:44.802Z,164.60
2022-12-17T20:21:44.086Z,124.90
2022-12-17T20:26:43.946Z,111.90
2022-12-17T20:31:49.392Z,109.50
2022-12-17T20:36:41.677Z,184.50
2022-12-17T20:41:41.033Z,128.40
2022-12-17T20:46:41.415Z,85.80
2022-12-17T20:51:40.766Z,89.60
2022-12-17T20:56:43.154Z,81.10
2022-12-17T21:01:36.922Z,68.40
2022-12-17T21:06:37.227Z,66.80
2022-12-17T21:11:36.267Z,59.90
2022-12-17T21:16:36.568Z,124.30
2022-12-17T21:21:34.798Z,160.30
2022-12-17T21:26:33.225Z,133.40
2022-12-17T21:31:33.306Z,131.90
2022-12-17T21:36:32.594Z,137.50
2022-12-17T21:41:31.807Z,181.40
2022-12-17T21:46:32.156Z,141.30
2022-12-17T21:51:31.310Z,129.90
2022-12-17T21:56:29.559Z,156.70
2022-12-17T22:01:29.139Z,150.50
2022-12-17T22:06:34.912Z,140.60
2022-12-17T22:11:27.345Z,112.00
2022-12-17T22:16:27.597Z,107.50
2022-12-17T22:21:25.795Z,90.60
2022-12-17T22:26:24.990Z,82.90
2022-12-17T22:31:24.178Z,72.30
2022-12-17T22:38:37.151Z,110.30
2022-12-17T22:44:37.107Z,121.90
2022-12-17T22:46:21.863Z,119.50
2022-12-17T22:51:27.443Z,166.80
2022-12-17T22:56:34.073Z,161.60
2022-12-17T23:01:23.148Z,139.30
2022-12-17T23:06:19.862Z,160.00
2022-12-17T23:11:17.058Z,130.40
2022-12-17T23:16:19.324Z,154.10
2022-12-17T23:21:16.551Z,201.00
2022-12-17T23:26:15.732Z,158.50
2022-12-17T23:31:14.950Z,136.10
2022-12-17T23:36:15.119Z,118.20
2022-12-17T23:41:14.311Z,95.10
2022-12-17T23:46:13.697Z,155.80
2022-12-17T23:51:12.845Z,159.50
2022-12-17T23:56:12.158Z,137.60
